createdAt,value
2017-10-25T00:00:19.767Z,101280.67
2017-10-25T00:02:47.691Z,101275.23
2017-10-25T00:05:14.599Z,101273.11
2017-10-25T00:07:43.571Z,101270.05
2017-10-25T00:10:10.888Z,101265.58
2017-10-25T00:12:44.128Z,101269.08
2017-10-25T00:15:11.374Z,101278.50
2017-10-25T00:17:38.946Z,101274.26
2017-10-25T00:20:11.444Z,101269.50
2017-10-25T00:22:45.314Z,101265.55
2017-10-25T00:25:12.370Z,101267.59
2017-10-25T00:27:40.246Z,101267.27
2017-10-25T00:30:07.204Z,101269.22
2017-10-25T00:32:35.561Z,101259.20
2017-10-25T00:35:02.750Z,101262.26
2017-10-25T00:37:31.025Z,101265.00
2017-10-25T00:40:03.277Z,101269.94
2017-10-25T00:42:30.084Z,101272.36
2017-10-25T00:45:00.903Z,101276.85
2017-10-25T00:47:34.013Z,101265.75
2017-10-25T00:50:00.931Z,101263.16
2017-10-25T00:52:28.531Z,101260.06
2017-10-25T00:54:55.758Z,101257.64
2017-10-25T00:57:27.836Z,101263.41
2017-10-25T00:59:55.642Z,101261.57
2017-10-25T01:02:28.521Z,101259.80
2017-10-25T01:04:59.556Z,101259.80
2017-10-25T01:07:27.116Z,101264.49
2017-10-25T01:09:54.040Z,101255.20
2017-10-25T01:12:21.165Z,101261.57
2017-10-25T01:14:49.997Z,101251.05
2017-10-25T01:17:17.985Z,101250.52
2017-10-25T01:19:45.749Z,101245.65
2017-10-25T01:22:18.135Z,101246.51
2017-10-25T01:24:50.456Z,101246.25
2017-10-25T01:27:17.437Z,101248.38
2017-10-25T01:29:49.931Z,101252.09
2017-10-25T01:32:23.308Z,101249.28
2017-10-25T01:34:50.552Z,101250.34
2017-10-25T01:37:17.776Z,101240.78
2017-10-25T01:39:50.023Z,101247.45
2017-10-25T01:42:17.665Z,101243.41
2017-10-25T01:44:44.546Z,101235.34
2017-10-25T01:47:12.735Z,101237.26
2017-10-25T01:49:42.756Z,101236.61
2017-10-25T01:52:10.006Z,101230.34
2017-10-25T01:54:37.245Z,101232.68
2017-10-25T01:57:05.218Z,101231.45
2017-10-25T01:59:33.102Z,101225.58
2017-10-25T02:02:00.110Z,101232.43
2017-10-25T02:04:27.011Z,101230.05
2017-10-25T02:06:54.692Z,101229.63
2017-10-25T02:09:27.694Z,101224.94
2017-10-25T02:11:59.786Z,101222.27
2017-10-25T02:14:27.782Z,101228.83
2017-10-25T02:16:55.952Z,101227.34
2017-10-25T02:19:25.065Z,101222.84
2017-10-25T02:21:57.230Z,101220.97
2017-10-25T02:24:30.167Z,101217.30
2017-10-25T02:27:00.159Z,101222.52
2017-10-25T02:29:31.898Z,101217.63
2017-10-25T02:31:58.993Z,101222.45
2017-10-25T02:34:25.813Z,101219.75
2017-10-25T02:36:55.986Z,101220.66
2017-10-25T02:39:29.417Z,101220.22
2017-10-25T02:41:56.700Z,101216.19
2017-10-25T02:44:24.604Z,101224.22
2017-10-25T02:46:56.529Z,101213.19
2017-10-25T02:49:23.732Z,101218.95
2017-10-25T02:51:51.842Z,101217.63
2017-10-25T02:54:18.835Z,101218.53
2017-10-25T02:56:46.521Z,101218.89
2017-10-25T02:59:19.970Z,101218.89
2017-10-25T03:01:46.976Z,101211.03
2017-10-25T03:04:19.395Z,101212.91
2017-10-25T03:06:46.588Z,101204.33
2017-10-25T03:09:18.702Z,101209.77
2017-10-25T03:11:50.769Z,101205.77
2017-10-25T03:14:17.611Z,101213.81
2017-10-25T03:16:44.601Z,101205.77
2017-10-25T03:19:11.554Z,101203.22
2017-10-25T03:21:39.627Z,101197.64
2017-10-25T03:24:11.750Z,101201.02
2017-10-25T03:26:41.069Z,101198.78
2017-10-25T03:29:11.296Z,101197.92
2017-10-25T03:31:39.842Z,101188.48
2017-10-25T03:34:12.050Z,101192.55
2017-10-25T03:36:45.369Z,101191.30
2017-10-25T03:39:23.874Z,101176.31
2017-10-25T03:41:51.191Z,101178.04
2017-10-25T03:44:18.756Z,101188.59
2017-10-25T03:46:51.856Z,101177.56
2017-10-25T03:49:19.199Z,101177.28
2017-10-25T03:51:47.477Z,101180.27
2017-10-25T03:54:14.377Z,101183.16
2017-10-25T03:56:41.227Z,101179.16
2017-10-25T03:59:14.887Z,101185.42
2017-10-25T04:01:42.812Z,101186.40
2017-10-25T04:04:10.572Z,101184.74
2017-10-25T04:06:37.663Z,101191.66
2017-10-25T04:09:04.763Z,101195.69
2017-10-25T04:11:31.965Z,101193.39
2017-10-25T04:14:04.952Z,101198.07
2017-10-25T04:16:37.825Z,101198.83
2017-10-25T04:19:06.899Z,101198.50
2017-10-25T04:21:38.923Z,101194.18
2017-10-25T04:24:11.874Z,101192.16
2017-10-25T04:26:39.316Z,101191.48
2017-10-25T04:29:06.325Z,101197.06
2017-10-25T04:31:39.585Z,101191.55
2017-10-25T04:34:11.597Z,101191.06
2017-10-25T04:36:38.778Z,101186.57
2017-10-25T04:39:10.760Z,101197.67
2017-10-25T04:41:37.618Z,101184.88
2017-10-25T04:44:04.476Z,101179.44
2017-10-25T04:46:31.341Z,101182.36
2017-10-25T04:48:58.172Z,101172.30
2017-10-25T04:51:25.749Z,101171.01
2017-10-25T04:53:53.327Z,101164.77
2017-10-25T04:56:20.883Z,101180.05
2017-10-25T04:58:47.738Z,101177.50
2017-10-25T05:01:14.575Z,101182.64
2017-10-25T05:03:41.433Z,101184.62
2017-10-25T05:06:08.290Z,101182.32
2017-10-25T05:08:35.200Z,101183.53
2017-10-25T05:11:02.036Z,101182.69
2017-10-25T05:13:28.861Z,101169.06
2017-10-25T05:15:55.703Z,101170.52
2017-10-25T05:18:23.346Z,101165.11
2017-10-25T05:20:50.596Z,101170.30
2017-10-25T05:23:17.432Z,101171.84
2017-10-25T05:25:44.943Z,101176.83
2017-10-25T05:28:11.848Z,101168.50
2017-10-25T05:30:39.479Z,101166.27
2017-10-25T05:33:06.378Z,101165.44
2017-10-25T05:35:34.086Z,101165.05
2017-10-25T05:38:00.951Z,101158.38
2017-10-25T05:40:27.830Z,101149.53
2017-10-25T05:42:54.682Z,101151.33
2017-10-25T05:45:21.587Z,101146.47
2017-10-25T05:47:48.407Z,101148.70
2017-10-25T05:50:15.328Z,101149.89
2017-10-25T05:52:42.167Z,101150.36
2017-10-25T05:55:09.027Z,101152.37
2017-10-25T05:57:35.821Z,101157.78
2017-10-25T06:00:03.481Z,101156.70
2017-10-25T06:02:30.300Z,101157.67
2017-10-25T06:04:57.164Z,101160.12
2017-10-25T06:07:24.037Z,101157.45
2017-10-25T06:09:50.947Z,101155.62
2017-10-25T06:12:18.507Z,101147.76
2017-10-25T06:14:45.379Z,101144.81
2017-10-25T06:17:12.293Z,101149.56
2017-10-25T06:19:39.146Z,101163.29
2017-10-25T06:22:06.027Z,101136.89
2017-10-25T06:24:32.845Z,101141.47
2017-10-25T06:27:00.424Z,101147.20
2017-10-25T06:29:27.947Z,101149.78
2017-10-25T06:31:54.813Z,101154.75
2017-10-25T06:34:21.678Z,101152.05
2017-10-25T06:36:48.574Z,101149.39
2017-10-25T06:39:15.414Z,101161.20
2017-10-25T06:41:42.295Z,101168.15
2017-10-25T06:44:09.946Z,101165.84
2017-10-25T06:46:36.803Z,101164.95
2017-10-25T06:49:03.742Z,101160.38
2017-10-25T06:51:30.674Z,101164.59
2017-10-25T06:53:58.276Z,101166.24
2017-10-25T06:56:25.098Z,101166.60
2017-10-25T06:58:52.726Z,101165.59
2017-10-25T07:01:19.561Z,101165.30
2017-10-25T07:03:46.364Z,101176.36
2017-10-25T07:06:13.213Z,101180.22
2017-10-25T07:08:40.068Z,101188.42
2017-10-25T07:11:06.888Z,101196.81
2017-10-25T07:13:34.574Z,101189.64
2017-10-25T07:16:02.219Z,101199.84
2017-10-25T07:18:29.055Z,101199.36
2017-10-25T07:20:56.057Z,101199.72
2017-10-25T07:23:22.904Z,101201.12
2017-10-25T07:25:49.725Z,101212.98
2017-10-25T07:28:16.563Z,101215.59
2017-10-25T07:30:43.365Z,101215.71
2017-10-25T07:33:10.204Z,101226.67
2017-10-25T07:35:37.067Z,101231.57
2017-10-25T07:38:03.981Z,101226.88
2017-10-25T07:40:30.913Z,101239.96
2017-10-25T07:42:57.726Z,101236.50
2017-10-25T07:45:25.335Z,101228.86
2017-10-25T07:47:52.148Z,101246.91
2017-10-25T07:50:18.992Z,101242.59
2017-10-25T07:52:45.947Z,101251.77
2017-10-25T07:55:12.854Z,101249.94
2017-10-25T07:57:40.542Z,101261.65
2017-10-25T08:00:08.130Z,101257.78
2017-10-25T08:02:34.973Z,101254.40
2017-10-25T08:05:02.604Z,101253.67
2017-10-25T08:07:29.461Z,101257.35
2017-10-25T08:09:56.310Z,101251.73
2017-10-25T08:12:23.203Z,101247.73
2017-10-25T08:14:50.151Z,101250.83
2017-10-25T08:17:16.982Z,101243.95
2017-10-25T08:19:43.855Z,101252.44
2017-10-25T08:22:10.710Z,101243.69
2017-10-25T08:24:37.646Z,101237.08
2017-10-25T08:27:04.499Z,101243.53
2017-10-25T08:29:31.347Z,101239.74
2017-10-25T08:31:58.193Z,101242.21
2017-10-25T08:34:25.032Z,101237.42
2017-10-25T08:36:51.982Z,101234.66
2017-10-25T08:39:18.920Z,101234.28
2017-10-25T08:41:46.541Z,101243.61
2017-10-25T08:44:13.371Z,101240.58
2017-10-25T08:46:40.508Z,101241.16
2017-10-25T08:49:08.093Z,101243.09
2017-10-25T08:51:35.029Z,101244.95
2017-10-25T08:54:01.911Z,101239.94
2017-10-25T08:56:28.990Z,101237.31
2017-10-25T08:58:56.617Z,101247.64
2017-10-25T09:01:23.631Z,101236.31
2017-10-25T09:03:51.299Z,101246.72
2017-10-25T09:06:18.943Z,101237.45
2017-10-25T09:08:45.871Z,101242.12
2017-10-25T09:11:13.511Z,101243.66
2017-10-25T09:13:40.426Z,101253.33
2017-10-25T09:16:07.405Z,101253.16
2017-10-25T09:18:34.281Z,101253.02
2017-10-25T09:21:01.145Z,101248.34
2017-10-25T09:23:28.047Z,101262.41
2017-10-25T09:25:55.653Z,101260.66
2017-10-25T09:28:22.496Z,101259.77
2017-10-25T09:30:49.375Z,101269.08
2017-10-25T09:33:16.209Z,101270.41
2017-10-25T09:35:43.138Z,101274.80
2017-10-25T09:38:09.935Z,101273.99
2017-10-25T09:40:37.575Z,101281.91
2017-10-25T09:43:04.393Z,101279.52
2017-10-25T09:45:31.245Z,101285.86
2017-10-25T09:47:58.878Z,101277.89
2017-10-25T09:50:25.763Z,101281.15
2017-10-25T09:52:52.610Z,101285.11
2017-10-25T09:55:19.457Z,101293.41
2017-10-25T09:57:46.275Z,101289.05
2017-10-25T10:00:13.154Z,101288.86
2017-10-25T10:02:40.072Z,101296.23
2017-10-25T10:05:06.972Z,101296.97
2017-10-25T10:07:33.824Z,101309.54
2017-10-25T10:10:01.443Z,101289.12
2017-10-25T10:12:28.277Z,101300.75
2017-10-25T10:14:56.750Z,101298.99
2017-10-25T10:17:24.340Z,101290.98
2017-10-25T10:19:51.971Z,101294.04
2017-10-25T10:22:18.876Z,101299.55
2017-10-25T10:24:46.485Z,101304.66
2017-10-25T10:27:13.337Z,101305.44
2017-10-25T10:29:40.167Z,101316.66
2017-10-25T10:32:07.772Z,101305.08
2017-10-25T10:34:34.734Z,101313.33
2017-10-25T10:37:01.662Z,101316.33
2017-10-25T10:39:28.539Z,101316.33
2017-10-25T10:41:56.163Z,101310.03
2017-10-25T10:44:23.047Z,101306.97
2017-10-25T10:46:49.880Z,101313.41
2017-10-25T10:49:16.814Z,101315.45
2017-10-25T10:51:44.416Z,101317.58
2017-10-25T10:54:11.247Z,101336.68
2017-10-25T10:56:38.843Z,101326.90
2017-10-25T10:59:06.011Z,101323.24
2017-10-25T11:01:32.952Z,101330.00
2017-10-25T11:04:00.646Z,101331.85
2017-10-25T11:06:27.584Z,101329.77
2017-10-25T11:08:54.595Z,101330.84
2017-10-25T11:11:21.470Z,101317.75
2017-10-25T11:13:48.302Z,101318.66
2017-10-25T11:16:15.155Z,101320.45
2017-10-25T11:18:42.832Z,101311.11
2017-10-25T11:21:10.460Z,101318.09
2017-10-25T11:23:37.401Z,101313.31
2017-10-25T11:26:04.292Z,101310.84
2017-10-25T11:28:31.162Z,101318.82
2017-10-25T11:30:58.067Z,101321.53
2017-10-25T11:33:25.752Z,101323.47
2017-10-25T11:35:52.677Z,101325.93
2017-10-25T11:38:19.543Z,101322.83
2017-10-25T11:40:46.407Z,101322.28
2017-10-25T11:43:13.284Z,101318.66
2017-10-25T11:45:41.017Z,101318.20
2017-10-25T11:48:07.894Z,101319.88
2017-10-25T11:50:34.724Z,101332.34
2017-10-25T12:06:08.219Z,101322.77
2017-10-25T12:08:35.162Z,101324.11
2017-10-25T12:11:02.072Z,101326.30
2017-10-25T12:13:28.910Z,101328.92
2017-10-25T12:15:55.779Z,101330.67
2017-10-25T12:18:23.362Z,101332.66
2017-10-25T12:20:50.233Z,101331.80
2017-10-25T12:23:17.128Z,101333.36
2017-10-25T12:25:43.986Z,101328.22
2017-10-25T12:28:10.818Z,101328.62
2017-10-25T12:30:37.723Z,101328.59
2017-10-25T12:33:04.602Z,101339.34
2017-10-25T12:35:31.451Z,101331.90
2017-10-25T12:37:58.279Z,101331.25
2017-10-25T12:40:25.926Z,101333.17
2017-10-25T12:42:52.817Z,101334.84
2017-10-25T12:45:19.659Z,101331.56
2017-10-25T12:47:46.608Z,101340.53
2017-10-25T12:50:13.469Z,101340.75
2017-10-25T12:52:40.322Z,101353.90
2017-10-25T12:55:07.207Z,101347.48
2017-10-25T12:57:34.031Z,101342.19
2017-10-25T13:00:00.886Z,101346.19
2017-10-25T13:02:27.701Z,101346.16
2017-10-25T13:04:54.504Z,101348.60
2017-10-25T13:07:21.355Z,101347.46
2017-10-25T13:09:48.221Z,101345.84
2017-10-25T13:12:39.032Z,101356.70
2017-10-25T13:15:32.065Z,101359.54
2017-10-25T13:18:05.036Z,101364.27
2017-10-25T13:20:31.878Z,101366.94
2017-10-25T13:22:58.798Z,101366.00
2017-10-25T13:25:25.610Z,101373.11
2017-10-25T13:27:52.490Z,101365.03
2017-10-25T13:30:19.412Z,101366.52
2017-10-25T13:32:47.705Z,101370.62
2017-10-25T13:35:14.551Z,101375.98
2017-10-25T13:37:41.480Z,101378.40
2017-10-25T13:40:08.366Z,101374.44
2017-10-25T13:42:35.201Z,101372.97
2017-10-25T13:45:02.020Z,101384.69
2017-10-25T13:47:28.878Z,101394.89
2017-10-25T13:49:55.699Z,101392.55
2017-10-25T13:52:22.531Z,101388.98
2017-10-25T13:54:49.383Z,101391.66
2017-10-25T13:57:16.263Z,101389.71
2017-10-25T13:59:43.195Z,101384.98
2017-10-25T14:02:09.996Z,101384.66
2017-10-25T14:04:36.812Z,101388.67
2017-10-25T14:07:03.667Z,101401.29
2017-10-25T14:09:30.497Z,101393.06
2017-10-25T14:11:58.119Z,101390.32
2017-10-25T14:14:25.070Z,101391.66
2017-10-25T14:16:51.922Z,101391.27
2017-10-25T14:19:18.805Z,101392.59
2017-10-25T14:21:45.730Z,101387.73
2017-10-25T14:24:12.640Z,101397.89
2017-10-25T14:26:57.811Z,101388.34
2017-10-25T14:29:24.634Z,101395.84
2017-10-25T14:31:52.192Z,101399.27
2017-10-25T14:34:19.016Z,101399.31
2017-10-25T14:36:45.864Z,101406.05
2017-10-25T14:39:12.835Z,101403.48
2017-10-25T14:41:39.723Z,101411.64
2017-10-25T14:44:06.584Z,101417.91
2017-10-25T14:46:33.445Z,101416.33
2017-10-25T14:49:00.443Z,101421.29
2017-10-25T14:51:27.610Z,101424.54
2017-10-25T14:53:54.496Z,101431.11
2017-10-25T14:56:21.314Z,101432.73
2017-10-25T14:58:48.132Z,101431.31
2017-10-25T15:01:15.019Z,101434.42
2017-10-25T15:03:41.952Z,101442.48
2017-10-25T15:06:09.107Z,101445.90
2017-10-25T15:08:35.959Z,101447.67
2017-10-25T15:11:02.808Z,101454.10
2017-10-25T15:13:30.428Z,101459.06
2017-10-25T15:15:57.243Z,101464.33
2017-10-25T15:18:24.119Z,101465.52
2017-10-25T15:20:50.964Z,101463.16
2017-10-25T15:23:18.592Z,101472.56
2017-10-25T15:25:45.467Z,101478.47
2017-10-25T15:28:12.313Z,101478.65
2017-10-25T15:30:39.139Z,101469.07
2017-10-25T15:33:06.807Z,101466.25
2017-10-25T15:35:34.359Z,101475.95
2017-10-25T15:38:01.203Z,101467.77
2017-10-25T15:40:28.033Z,101468.44
2017-10-25T15:42:54.831Z,101472.55
2017-10-25T15:45:21.708Z,101468.73
2017-10-25T15:47:48.564Z,101476.39
2017-10-25T15:50:15.407Z,101481.61
2017-10-25T15:52:42.471Z,101479.80
2017-10-25T15:55:09.345Z,101481.77
2017-10-25T15:57:36.269Z,101494.50
2017-10-25T16:00:05.167Z,101492.53
2017-10-25T16:02:35.144Z,101493.96
2017-10-25T16:05:04.893Z,101490.44
2017-10-25T16:20:33.222Z,101496.73
2017-10-25T16:23:08.174Z,101502.03
2017-10-25T16:25:36.320Z,101503.59
2017-10-25T16:28:03.516Z,101511.56
2017-10-25T16:30:36.846Z,101506.06
2017-10-25T16:33:03.787Z,101513.83
2017-10-25T16:35:30.702Z,101506.62
2017-10-25T16:37:59.557Z,101508.16
2017-10-25T16:40:32.215Z,101513.17
2017-10-25T16:43:06.693Z,101515.75
2017-10-25T16:45:34.784Z,101524.36
2017-10-25T16:48:01.775Z,101523.30
2017-10-25T16:50:29.881Z,101523.47
2017-10-25T16:52:57.696Z,101526.37
2017-10-25T16:55:30.697Z,101522.61
2017-10-25T16:57:58.502Z,101524.94
2017-10-25T17:00:30.996Z,101531.58
2017-10-25T17:02:57.940Z,101541.13
2017-10-25T17:05:28.168Z,101544.45
2017-10-25T17:07:55.410Z,101544.34
2017-10-25T17:10:23.155Z,101544.48
2017-10-25T17:12:50.145Z,101554.81
2017-10-25T17:15:22.524Z,101562.92
2017-10-25T17:17:50.283Z,101568.92
2017-10-25T17:20:18.524Z,101566.78
2017-10-25T17:22:45.592Z,101568.94
2017-10-25T17:25:17.670Z,101572.03
2017-10-25T17:27:50.081Z,101576.91
2017-10-25T17:30:18.255Z,101574.23
2017-10-25T17:32:45.976Z,101574.00
2017-10-25T17:35:18.029Z,101577.77
2017-10-25T17:37:44.951Z,101583.80
2017-10-25T17:40:17.349Z,101585.77
2017-10-25T17:42:44.373Z,101582.45
2017-10-25T17:45:11.353Z,101581.42
2017-10-25T17:47:39.089Z,101583.06
2017-10-25T17:50:08.311Z,101583.44
2017-10-25T17:52:35.262Z,101579.43
2017-10-25T17:55:04.281Z,101581.64
2017-10-25T17:57:36.450Z,101585.75
2017-10-25T18:00:05.889Z,101587.30
2017-10-25T18:02:34.688Z,101590.22
2017-10-25T18:05:08.557Z,101582.44
2017-10-25T18:07:37.266Z,101583.52
2017-10-25T18:10:13.410Z,101578.45
2017-10-25T18:12:41.669Z,101576.33
2017-10-25T18:15:08.774Z,101599.98
2017-10-25T18:17:37.262Z,101589.95
2017-10-25T18:20:12.563Z,101600.56
2017-10-25T18:22:45.499Z,101608.09
2017-10-25T18:27:48.594Z,101613.88
2017-10-25T18:30:15.690Z,101613.30
2017-10-25T18:32:44.326Z,101609.05
2017-10-25T18:35:12.532Z,101602.30
2017-10-25T18:37:40.588Z,101604.00
2017-10-25T18:40:14.316Z,101617.19
2017-10-25T18:42:41.662Z,101618.73
2017-10-25T18:45:11.764Z,101616.29
2017-10-25T18:47:38.711Z,101622.42
2017-10-25T18:50:11.592Z,101627.39
2017-10-25T18:52:42.954Z,101620.92
2017-10-25T18:55:19.028Z,101617.29
2017-10-25T18:57:52.992Z,101614.53
2017-10-25T19:00:20.429Z,101621.51
2017-10-25T19:02:52.636Z,101619.43
2017-10-25T19:05:24.874Z,101618.10
2017-10-25T19:07:57.841Z,101625.53
2017-10-25T19:10:29.828Z,101626.18
2017-10-25T19:12:57.210Z,101631.72
2017-10-25T19:15:24.025Z,101631.11
2017-10-25T19:17:51.122Z,101631.41
2017-10-25T19:20:18.154Z,101636.55
2017-10-25T19:22:45.452Z,101640.17
2017-10-25T19:25:13.417Z,101630.89
2017-10-25T19:27:41.081Z,101633.00
2017-10-25T19:30:09.206Z,101646.05
2017-10-25T19:32:37.769Z,101647.84
2017-10-25T19:35:11.924Z,101644.27
2017-10-25T19:37:41.295Z,101641.17
2017-10-25T19:40:08.422Z,101650.30
2017-10-25T19:42:35.635Z,101659.94
2017-10-25T19:45:03.362Z,101661.33
2017-10-25T19:47:32.028Z,101659.81
2017-10-25T19:50:03.827Z,101660.00
2017-10-25T19:52:32.150Z,101665.00
2017-10-25T19:55:00.167Z,101666.77
2017-10-25T19:57:27.080Z,101662.11
2017-10-25T19:59:54.193Z,101657.91
2017-10-25T20:02:22.099Z,101654.18
2017-10-25T20:04:50.680Z,101646.64
2017-10-25T20:07:17.936Z,101644.73
2017-10-25T20:09:45.372Z,101664.33
2017-10-25T20:12:12.357Z,101651.55
2017-10-25T20:14:39.300Z,101654.58
2017-10-25T20:17:06.346Z,101651.30
2017-10-25T20:19:33.365Z,101652.77
2017-10-25T20:22:00.849Z,101653.63
2017-10-25T20:24:28.554Z,101649.97
2017-10-25T20:26:56.187Z,101645.85
2017-10-25T20:29:23.038Z,101654.59
2017-10-25T20:31:49.881Z,101659.42
2017-10-25T20:34:17.151Z,101664.77
2017-10-25T20:36:44.559Z,101670.84
2017-10-25T20:39:11.494Z,101679.19
2017-10-25T20:41:38.381Z,101687.63
2017-10-25T20:44:05.282Z,101697.81
2017-10-25T20:46:32.959Z,101691.70
2017-10-25T20:48:59.816Z,101693.88
2017-10-25T20:51:26.772Z,101687.89
2017-10-25T20:53:53.657Z,101694.77
2017-10-25T20:56:21.299Z,101689.83
2017-10-25T20:58:48.509Z,101690.60
2017-10-25T21:01:15.446Z,101696.59
2017-10-25T21:03:42.319Z,101685.55
2017-10-25T21:06:09.164Z,101689.08
2017-10-25T21:08:36.028Z,101693.47
2017-10-25T21:11:02.920Z,101709.92
2017-10-25T21:13:30.489Z,101711.65
2017-10-25T21:15:58.057Z,101709.88
2017-10-25T21:18:24.888Z,101709.88
2017-10-25T21:20:51.788Z,101704.34
2017-10-25T21:23:18.608Z,101711.02
2017-10-25T21:25:45.437Z,101708.00
2017-10-25T21:28:12.287Z,101707.22
2017-10-25T21:30:39.967Z,101704.83
2017-10-25T21:33:07.632Z,101708.13
2017-10-25T21:35:35.197Z,101696.83
2017-10-25T21:38:02.523Z,101705.00
2017-10-25T21:40:29.382Z,101703.61
2017-10-25T21:42:56.208Z,101700.28
2017-10-25T21:45:25.859Z,101703.53
2017-10-25T21:47:52.972Z,101711.01
2017-10-25T21:50:19.813Z,101713.43
2017-10-25T21:52:46.675Z,101709.94
2017-10-25T21:55:13.526Z,101720.58
2017-10-25T21:57:40.415Z,101714.03
2017-10-25T22:00:07.918Z,101713.25
2017-10-25T22:02:35.521Z,101717.15
2017-10-25T22:05:02.328Z,101713.39
2017-10-25T22:07:29.255Z,101712.06
2017-10-25T22:09:56.241Z,101707.55
2017-10-25T22:12:23.134Z,101711.25
2017-10-25T22:14:49.982Z,101705.52
2017-10-25T22:17:16.937Z,101704.55
2017-10-25T22:19:43.877Z,101702.61
2017-10-25T22:22:10.875Z,101706.30
2017-10-25T22:24:37.761Z,101709.06
2017-10-25T22:27:04.602Z,101719.94
2017-10-25T22:29:31.459Z,101729.61
2017-10-25T22:31:58.297Z,101728.36
2017-10-25T22:34:25.122Z,101721.82
2017-10-25T22:36:52.700Z,101723.17
2017-10-25T22:39:20.296Z,101715.91
2017-10-25T22:41:47.149Z,101717.86
2017-10-25T22:44:14.851Z,101723.84
2017-10-25T22:46:41.983Z,101722.28
2017-10-25T22:49:09.552Z,101727.59
2017-10-25T22:51:37.327Z,101734.81
2017-10-25T22:54:05.523Z,101719.71
2017-10-25T22:56:33.156Z,101733.62
2017-10-25T22:59:01.003Z,101736.14
2017-10-25T23:01:27.903Z,101730.45
2017-10-25T23:03:54.801Z,101732.20
2017-10-25T23:06:21.737Z,101731.58
2017-10-25T23:08:48.567Z,101731.98
2017-10-25T23:11:15.411Z,101739.20
2017-10-25T23:13:42.985Z,101731.48
2017-10-25T23:16:10.569Z,101734.92
2017-10-25T23:18:37.402Z,101738.84
2017-10-25T23:21:04.248Z,101741.66
2017-10-25T23:23:31.129Z,101739.23
2017-10-25T23:25:57.987Z,101742.67
2017-10-25T23:28:24.865Z,101733.92
2017-10-25T23:30:52.466Z,101737.21
2017-10-25T23:33:19.272Z,101737.27
2017-10-25T23:35:46.100Z,101734.80
2017-10-25T23:38:12.909Z,101732.42
2017-10-25T23:40:39.785Z,101725.70
2017-10-25T23:43:07.358Z,101719.05
2017-10-25T23:45:34.162Z,101715.34
2017-10-25T23:48:00.982Z,101713.80
2017-10-25T23:50:27.857Z,101714.02
2017-10-25T23:52:55.457Z,101711.34
2017-10-25T23:55:22.349Z,101711.59
2017-10-25T23:57:49.184Z,101712.53
